sensor_id;sensor_type;location;lat;lon;timestamp;temperature;humidity
44121;DHT22;29783;52.504;13.478;2024-02-23T00:01:49;10.30;91.30
44121;DHT22;29783;52.504;13.478;2024-02-23T00:04:14;10.30;91.30
44121;DHT22;29783;52.504;13.478;2024-02-23T00:06:40;10.40;91.20
44121;DHT22;29783;52.504;13.478;2024-02-23T00:09:06;10.40;91.00
44121;DHT22;29783;52.504;13.478;2024-02-23T00:11:31;10.40;90.90
44121;DHT22;29783;52.504;13.478;2024-02-23T00:14:05;10.40;90.80
44121;DHT22;29783;52.504;13.478;2024-02-23T00:16:30;10.50;90.50
44121;DHT22;29783;52.504;13.478;2024-02-23T00:18:56;10.40;90.60
44121;DHT22;29783;52.504;13.478;2024-02-23T00:21:23;10.50;90.30
44121;DHT22;29783;52.504;13.478;2024-02-23T00:23:48;10.50;90.10
44121;DHT22;29783;52.504;13.478;2024-02-23T00:26:14;10.60;89.90
44121;DHT22;29783;52.504;13.478;2024-02-23T00:28:39;10.60;89.80
44121;DHT22;29783;52.504;13.478;2024-02-23T00:31:05;10.60;89.70
44121;DHT22;29783;52.504;13.478;2024-02-23T00:33:30;10.70;89.40
44121;DHT22;29783;52.504;13.478;2024-02-23T00:35:56;10.70;89.20
44121;DHT22;29783;52.504;13.478;2024-02-23T00:38:22;10.70;89.10
44121;DHT22;29783;52.504;13.478;2024-02-23T00:40:48;10.70;89.20
44121;DHT22;29783;52.504;13.478;2024-02-23T00:43:13;10.60;89.50
44121;DHT22;29783;52.504;13.478;2024-02-23T00:45:39;10.50;89.80
44121;DHT22;29783;52.504;13.478;2024-02-23T00:48:05;10.40;90.10
44121;DHT22;29783;52.504;13.478;2024-02-23T00:50:32;10.30;90.30
44121;DHT22;29783;52.504;13.478;2024-02-23T00:52:57;10.30;90.40
44121;DHT22;29783;52.504;13.478;2024-02-23T00:55:23;10.30;90.30
44121;DHT22;29783;52.504;13.478;2024-02-23T00:57:50;10.30;90.40
44121;DHT22;29783;52.504;13.478;2024-02-23T01:00:16;10.30;90.40
44121;DHT22;29783;52.504;13.478;2024-02-23T01:02:42;10.30;90.30
44121;DHT22;29783;52.504;13.478;2024-02-23T01:05:08;10.30;90.20
44121;DHT22;29783;52.504;13.478;2024-02-23T01:07:35;10.30;90.00
44121;DHT22;29783;52.504;13.478;2024-02-23T01:10:01;10.30;90.00
44121;DHT22;29783;52.504;13.478;2024-02-23T01:12:27;10.30;90.00
44121;DHT22;29783;52.504;13.478;2024-02-23T01:14:53;10.30;89.80
44121;DHT22;29783;52.504;13.478;2024-02-23T01:17:19;10.30;89.60
44121;DHT22;29783;52.504;13.478;2024-02-23T01:19:44;10.40;89.10
44121;DHT22;29783;52.504;13.478;2024-02-23T01:22:10;10.50;88.60
44121;DHT22;29783;52.504;13.478;2024-02-23T01:24:36;10.60;88.00
44121;DHT22;29783;52.504;13.478;2024-02-23T01:27:02;10.70;87.50
44121;DHT22;29783;52.504;13.478;2024-02-23T01:29:27;10.70;87.30
44121;DHT22;29783;52.504;13.478;2024-02-23T01:31:53;10.70;86.80
44121;DHT22;29783;52.504;13.478;2024-02-23T01:34:22;10.80;86.30
44121;DHT22;29783;52.504;13.478;2024-02-23T01:36:47;10.80;86.10
44121;DHT22;29783;52.504;13.478;2024-02-23T01:39:13;10.80;85.90
44121;DHT22;29783;52.504;13.478;2024-02-23T01:41:39;10.90;84.90
44121;DHT22;29783;52.504;13.478;2024-02-23T01:44:04;11.00;84.30
44121;DHT22;29783;52.504;13.478;2024-02-23T01:46:31;11.00;83.90
44121;DHT22;29783;52.504;13.478;2024-02-23T01:48:57;11.10;83.20
44121;DHT22;29783;52.504;13.478;2024-02-23T01:51:24;11.20;82.40
44121;DHT22;29783;52.504;13.478;2024-02-23T01:53:50;11.20;81.90
44121;DHT22;29783;52.504;13.478;2024-02-23T01:56:17;11.30;80.60
44121;DHT22;29783;52.504;13.478;2024-02-23T01:58:46;11.30;80.40
44121;DHT22;29783;52.504;13.478;2024-02-23T02:01:12;11.30;80.30
44121;DHT22;29783;52.504;13.478;2024-02-23T02:03:40;11.40;79.40
44121;DHT22;29783;52.504;13.478;2024-02-23T02:06:06;11.50;79.70
44121;DHT22;29783;52.504;13.478;2024-02-23T02:08:36;11.40;79.40
44121;DHT22;29783;52.504;13.478;2024-02-23T02:11:02;11.40;78.00
44121;DHT22;29783;52.504;13.478;2024-02-23T02:13:29;11.50;77.40
44121;DHT22;29783;52.504;13.478;2024-02-23T02:15:54;11.50;75.50
44121;DHT22;29783;52.504;13.478;2024-02-23T02:18:20;11.50;73.90
44121;DHT22;29783;52.504;13.478;2024-02-23T02:20:54;11.50;72.70
44121;DHT22;29783;52.504;13.478;2024-02-23T02:23:20;11.50;73.10
44121;DHT22;29783;52.504;13.478;2024-02-23T02:25:55;11.40;72.80
44121;DHT22;29783;52.504;13.478;2024-02-23T02:28:22;11.30;71.70
44121;DHT22;29783;52.504;13.478;2024-02-23T02:30:48;11.40;69.20
44121;DHT22;29783;52.504;13.478;2024-02-23T02:33:14;11.40;69.00
44121;DHT22;29783;52.504;13.478;2024-02-23T02:35:40;11.40;69.20
44121;DHT22;29783;52.504;13.478;2024-02-23T02:38:05;11.20;66.70
44121;DHT22;29783;52.504;13.478;2024-02-23T02:40:31;11.20;64.60
44121;DHT22;29783;52.504;13.478;2024-02-23T02:42:57;11.20;63.00
44121;DHT22;29783;52.504;13.478;2024-02-23T02:45:23;11.20;62.90
44121;DHT22;29783;52.504;13.478;2024-02-23T02:47:49;11.10;61.70
44121;DHT22;29783;52.504;13.478;2024-02-23T02:50:15;11.00;61.10
44121;DHT22;29783;52.504;13.478;2024-02-23T02:52:41;11.00;61.20
44121;DHT22;29783;52.504;13.478;2024-02-23T02:55:07;11.00;61.00
44121;DHT22;29783;52.504;13.478;2024-02-23T02:57:32;10.90;61.40
44121;DHT22;29783;52.504;13.478;2024-02-23T02:59:58;10.80;62.20
44121;DHT22;29783;52.504;13.478;2024-02-23T03:02:23;10.80;61.70
44121;DHT22;29783;52.504;13.478;2024-02-23T03:04:49;10.70;62.10
44121;DHT22;29783;52.504;13.478;2024-02-23T03:07:16;10.70;62.50
44121;DHT22;29783;52.504;13.478;2024-02-23T03:09:41;10.60;62.70
44121;DHT22;29783;52.504;13.478;2024-02-23T03:12:08;10.60;62.20
44121;DHT22;29783;52.504;13.478;2024-02-23T03:14:33;10.60;62.50
44121;DHT22;29783;52.504;13.478;2024-02-23T03:16:59;10.60;62.20
44121;DHT22;29783;52.504;13.478;2024-02-23T03:19:25;10.50;62.40
44121;DHT22;29783;52.504;13.478;2024-02-23T03:21:51;10.40;62.20
44121;DHT22;29783;52.504;13.478;2024-02-23T03:24:17;10.30;62.90
44121;DHT22;29783;52.504;13.478;2024-02-23T03:26:42;10.20;62.90
44121;DHT22;29783;52.504;13.478;2024-02-23T03:29:09;10.20;62.20
44121;DHT22;29783;52.504;13.478;2024-02-23T03:31:34;10.20;62.70
44121;DHT22;29783;52.504;13.478;2024-02-23T03:34:00;10.10;63.00
44121;DHT22;29783;52.504;13.478;2024-02-23T03:36:26;10.10;62.30
44121;DHT22;29783;52.504;13.478;2024-02-23T03:38:51;10.10;61.70
44121;DHT22;29783;52.504;13.478;2024-02-23T03:41:17;10.10;62.50
44121;DHT22;29783;52.504;13.478;2024-02-23T03:43:43;10.00;61.80
44121;DHT22;29783;52.504;13.478;2024-02-23T03:46:09;10.00;61.30
44121;DHT22;29783;52.504;13.478;2024-02-23T03:48:34;10.00;61.50
44121;DHT22;29783;52.504;13.478;2024-02-23T03:51:06;9.90;62.00
44121;DHT22;29783;52.504;13.478;2024-02-23T03:53:32;9.90;62.00
44121;DHT22;29783;52.504;13.478;2024-02-23T03:55:58;9.90;61.90
44121;DHT22;29783;52.504;13.478;2024-02-23T03:58:23;9.80;62.10
44121;DHT22;29783;52.504;13.478;2024-02-23T04:00:49;9.80;62.20
44121;DHT22;29783;52.504;13.478;2024-02-23T04:03:14;9.90;62.40
44121;DHT22;29783;52.504;13.478;2024-02-23T04:05:40;9.90;62.00
44121;DHT22;29783;52.504;13.478;2024-02-23T04:08:06;9.90;62.50
44121;DHT22;29783;52.504;13.478;2024-02-23T04:10:32;9.80;63.20
44121;DHT22;29783;52.504;13.478;2024-02-23T04:12:58;9.70;63.70
44121;DHT22;29783;52.504;13.478;2024-02-23T04:15:24;9.70;63.80
44121;DHT22;29783;52.504;13.478;2024-02-23T04:17:49;9.70;63.90
44121;DHT22;29783;52.504;13.478;2024-02-23T04:20:15;9.70;64.10
44121;DHT22;29783;52.504;13.478;2024-02-23T04:22:40;9.60;64.40
44121;DHT22;29783;52.504;13.478;2024-02-23T04:25:06;9.50;64.90
44121;DHT22;29783;52.504;13.478;2024-02-23T04:27:32;9.60;64.50
44121;DHT22;29783;52.504;13.478;2024-02-23T04:29:57;9.70;64.10
44121;DHT22;29783;52.504;13.478;2024-02-23T04:32:23;9.70;64.20
44121;DHT22;29783;52.504;13.478;2024-02-23T04:34:49;9.60;64.00
44121;DHT22;29783;52.504;13.478;2024-02-23T04:37:14;9.60;64.00
44121;DHT22;29783;52.504;13.478;2024-02-23T04:39:40;9.50;64.20
44121;DHT22;29783;52.504;13.478;2024-02-23T04:42:07;9.50;64.50
44121;DHT22;29783;52.504;13.478;2024-02-23T04:44:34;9.40;64.70
44121;DHT22;29783;52.504;13.478;2024-02-23T04:47:00;9.40;64.10
44121;DHT22;29783;52.504;13.478;2024-02-23T04:49:26;9.30;64.30
44121;DHT22;29783;52.504;13.478;2024-02-23T04:51:51;9.40;63.60
44121;DHT22;29783;52.504;13.478;2024-02-23T04:54:17;9.50;63.70
44121;DHT22;29783;52.504;13.478;2024-02-23T04:56:42;9.50;62.80
44121;DHT22;29783;52.504;13.478;2024-02-23T04:59:08;9.50;63.20
44121;DHT22;29783;52.504;13.478;2024-02-23T05:01:37;9.40;63.20
44121;DHT22;29783;52.504;13.478;2024-02-23T05:04:03;9.40;63.40
44121;DHT22;29783;52.504;13.478;2024-02-23T05:06:29;9.30;63.10
44121;DHT22;29783;52.504;13.478;2024-02-23T05:08:55;9.30;63.00
44121;DHT22;29783;52.504;13.478;2024-02-23T05:11:21;9.30;62.00
44121;DHT22;29783;52.504;13.478;2024-02-23T05:13:47;9.40;61.80
44121;DHT22;29783;52.504;13.478;2024-02-23T05:16:15;9.40;61.60
44121;DHT22;29783;52.504;13.478;2024-02-23T05:18:41;9.40;61.70
44121;DHT22;29783;52.504;13.478;2024-02-23T05:21:07;9.40;61.60
44121;DHT22;29783;52.504;13.478;2024-02-23T05:23:33;9.30;61.70
44121;DHT22;29783;52.504;13.478;2024-02-23T05:25:59;9.30;62.10
44121;DHT22;29783;52.504;13.478;2024-02-23T05:28:24;9.30;61.70
44121;DHT22;29783;52.504;13.478;2024-02-23T05:30:50;9.30;62.00
44121;DHT22;29783;52.504;13.478;2024-02-23T05:33:16;9.30;62.10
44121;DHT22;29783;52.504;13.478;2024-02-23T05:35:42;9.30;62.60
44121;DHT22;29783;52.504;13.478;2024-02-23T05:38:07;9.20;62.70
44121;DHT22;29783;52.504;13.478;2024-02-23T05:40:33;9.00;62.90
44121;DHT22;29783;52.504;13.478;2024-02-23T05:42:58;8.90;62.60
44121;DHT22;29783;52.504;13.478;2024-02-23T05:45:24;8.80;61.80
44121;DHT22;29783;52.504;13.478;2024-02-23T05:47:50;8.70;61.90
44121;DHT22;29783;52.504;13.478;2024-02-23T05:50:16;8.60;61.40
44121;DHT22;29783;52.504;13.478;2024-02-23T05:52:41;8.50;61.80
44121;DHT22;29783;52.504;13.478;2024-02-23T05:55:10;8.40;62.00
44121;DHT22;29783;52.504;13.478;2024-02-23T05:57:36;8.40;62.20
44121;DHT22;29783;52.504;13.478;2024-02-23T06:00:02;8.30;62.20
44121;DHT22;29783;52.504;13.478;2024-02-23T06:02:28;8.30;61.80
44121;DHT22;29783;52.504;13.478;2024-02-23T06:04:54;8.20;62.30
44121;DHT22;29783;52.504;13.478;2024-02-23T06:07:19;8.20;62.90
44121;DHT22;29783;52.504;13.478;2024-02-23T06:09:48;8.10;62.60
44121;DHT22;29783;52.504;13.478;2024-02-23T06:12:14;8.10;62.90
44121;DHT22;29783;52.504;13.478;2024-02-23T06:14:39;8.10;62.60
44121;DHT22;29783;52.504;13.478;2024-02-23T06:17:05;8.10;62.60
44121;DHT22;29783;52.504;13.478;2024-02-23T06:19:32;8.00;62.80
44121;DHT22;29783;52.504;13.478;2024-02-23T06:21:57;8.00;63.30
44121;DHT22;29783;52.504;13.478;2024-02-23T06:24:23;8.00;63.10
44121;DHT22;29783;52.504;13.478;2024-02-23T06:26:48;8.00;63.20
44121;DHT22;29783;52.504;13.478;2024-02-23T06:29:14;8.00;63.40
44121;DHT22;29783;52.504;13.478;2024-02-23T06:31:40;7.90;63.30
44121;DHT22;29783;52.504;13.478;2024-02-23T06:34:07;7.90;63.40
44121;DHT22;29783;52.504;13.478;2024-02-23T06:36:33;7.90;63.10
44121;DHT22;29783;52.504;13.478;2024-02-23T06:38:58;8.00;63.20
44121;DHT22;29783;52.504;13.478;2024-02-23T06:41:24;7.90;63.40
44121;DHT22;29783;52.504;13.478;2024-02-23T06:43:50;7.90;63.20
44121;DHT22;29783;52.504;13.478;2024-02-23T06:46:19;7.90;63.60
44121;DHT22;29783;52.504;13.478;2024-02-23T06:48:46;7.90;63.60
44121;DHT22;29783;52.504;13.478;2024-02-23T06:51:11;7.90;63.30
44121;DHT22;29783;52.504;13.478;2024-02-23T06:53:37;8.00;62.80
44121;DHT22;29783;52.504;13.478;2024-02-23T06:56:03;8.00;62.90
44121;DHT22;29783;52.504;13.478;2024-02-23T06:58:29;7.90;63.30
44121;DHT22;29783;52.504;13.478;2024-02-23T07:00:55;8.00;63.20
44121;DHT22;29783;52.504;13.478;2024-02-23T07:03:20;8.00;63.20
44121;DHT22;29783;52.504;13.478;2024-02-23T07:05:46;8.00;63.30
44121;DHT22;29783;52.504;13.478;2024-02-23T07:08:13;8.00;63.30
44121;DHT22;29783;52.504;13.478;2024-02-23T07:10:38;8.00;63.30
44121;DHT22;29783;52.504;13.478;2024-02-23T07:13:04;8.00;63.30
44121;DHT22;29783;52.504;13.478;2024-02-23T07:15:30;8.00;63.70
44121;DHT22;29783;52.504;13.478;2024-02-23T07:17:58;8.10;63.40
44121;DHT22;29783;52.504;13.478;2024-02-23T07:20:23;8.10;63.80
44121;DHT22;29783;52.504;13.478;2024-02-23T07:22:49;8.10;63.50
44121;DHT22;29783;52.504;13.478;2024-02-23T07:25:18;8.10;64.20
44121;DHT22;29783;52.504;13.478;2024-02-23T07:27:46;8.20;64.10
44121;DHT22;29783;52.504;13.478;2024-02-23T07:30:12;8.10;64.30
44121;DHT22;29783;52.504;13.478;2024-02-23T07:32:38;8.20;64.40
44121;DHT22;29783;52.504;13.478;2024-02-23T07:35:04;8.20;64.10
44121;DHT22;29783;52.504;13.478;2024-02-23T07:37:30;8.20;64.20
44121;DHT22;29783;52.504;13.478;2024-02-23T07:39:55;8.20;63.40
44121;DHT22;29783;52.504;13.478;2024-02-23T07:42:21;8.20;63.80
44121;DHT22;29783;52.504;13.478;2024-02-23T07:44:47;8.20;63.90
44121;DHT22;29783;52.504;13.478;2024-02-23T07:47:12;8.30;63.60
44121;DHT22;29783;52.504;13.478;2024-02-23T07:49:38;8.30;63.70
44121;DHT22;29783;52.504;13.478;2024-02-23T07:52:06;8.30;63.70
44121;DHT22;29783;52.504;13.478;2024-02-23T07:54:32;8.30;63.00
44121;DHT22;29783;52.504;13.478;2024-02-23T07:56:58;8.30;63.40
44121;DHT22;29783;52.504;13.478;2024-02-23T07:59:24;8.30;63.80
44121;DHT22;29783;52.504;13.478;2024-02-23T08:01:49;8.40;63.40
44121;DHT22;29783;52.504;13.478;2024-02-23T08:04:15;8.40;63.80
44121;DHT22;29783;52.504;13.478;2024-02-23T08:06:42;8.30;64.50
44121;DHT22;29783;52.504;13.478;2024-02-23T08:09:08;8.20;64.80
44121;DHT22;29783;52.504;13.478;2024-02-23T08:11:34;8.30;64.50
44121;DHT22;29783;52.504;13.478;2024-02-23T08:13:59;8.40;64.40
44121;DHT22;29783;52.504;13.478;2024-02-23T08:16:25;8.50;64.60
44121;DHT22;29783;52.504;13.478;2024-02-23T08:18:51;8.60;64.60
44121;DHT22;29783;52.504;13.478;2024-02-23T08:21:16;8.70;64.20
44121;DHT22;29783;52.504;13.478;2024-02-23T08:23:42;8.80;63.60
44121;DHT22;29783;52.504;13.478;2024-02-23T08:26:07;8.90;63.60
44121;DHT22;29783;52.504;13.478;2024-02-23T08:28:35;9.00;62.90
44121;DHT22;29783;52.504;13.478;2024-02-23T08:31:01;9.00;62.90
44121;DHT22;29783;52.504;13.478;2024-02-23T08:33:26;8.90;62.70
44121;DHT22;29783;52.504;13.478;2024-02-23T08:35:52;8.90;63.30
44121;DHT22;29783;52.504;13.478;2024-02-23T08:38:18;9.00;62.80
44121;DHT22;29783;52.504;13.478;2024-02-23T08:40:44;9.00;62.60
44121;DHT22;29783;52.504;13.478;2024-02-23T08:43:11;8.90;62.60
44121;DHT22;29783;52.504;13.478;2024-02-23T08:45:37;8.80;62.60
44121;DHT22;29783;52.504;13.478;2024-02-23T08:48:02;8.90;62.30
44121;DHT22;29783;52.504;13.478;2024-02-23T08:50:32;8.70;63.00
44121;DHT22;29783;52.504;13.478;2024-02-23T08:52:58;8.80;61.80
44121;DHT22;29783;52.504;13.478;2024-02-23T08:55:23;8.80;62.00
44121;DHT22;29783;52.504;13.478;2024-02-23T08:57:50;8.80;61.80
44121;DHT22;29783;52.504;13.478;2024-02-23T09:00:16;8.90;61.80
44121;DHT22;29783;52.504;13.478;2024-02-23T09:02:41;9.00;61.70
44121;DHT22;29783;52.504;13.478;2024-02-23T09:05:08;9.00;62.10
44121;DHT22;29783;52.504;13.478;2024-02-23T09:07:34;9.00;61.30
44121;DHT22;29783;52.504;13.478;2024-02-23T09:10:00;9.00;61.50
44121;DHT22;29783;52.504;13.478;2024-02-23T09:12:26;9.10;60.10
44121;DHT22;29783;52.504;13.478;2024-02-23T09:14:52;9.20;60.80
44121;DHT22;29783;52.504;13.478;2024-02-23T09:17:17;9.20;60.10
44121;DHT22;29783;52.504;13.478;2024-02-23T09:19:45;9.20;60.30
44121;DHT22;29783;52.504;13.478;2024-02-23T09:22:11;9.30;59.90
44121;DHT22;29783;52.504;13.478;2024-02-23T09:24:40;9.40;60.30
44121;DHT22;29783;52.504;13.478;2024-02-23T09:27:06;9.60;59.60
44121;DHT22;29783;52.504;13.478;2024-02-23T09:29:32;9.70;59.20
44121;DHT22;29783;52.504;13.478;2024-02-23T09:31:58;9.80;58.80
44121;DHT22;29783;52.504;13.478;2024-02-23T09:34:24;9.70;59.00
44121;DHT22;29783;52.504;13.478;2024-02-23T09:36:50;9.70;59.80
44121;DHT22;29783;52.504;13.478;2024-02-23T09:39:16;9.70;59.90
44121;DHT22;29783;52.504;13.478;2024-02-23T09:41:42;9.70;59.20
44121;DHT22;29783;52.504;13.478;2024-02-23T09:44:08;9.80;57.20
44121;DHT22;29783;52.504;13.478;2024-02-23T09:46:36;9.80;58.30
44121;DHT22;29783;52.504;13.478;2024-02-23T09:49:03;9.80;57.10
44121;DHT22;29783;52.504;13.478;2024-02-23T09:51:29;9.70;57.10
44121;DHT22;29783;52.504;13.478;2024-02-23T09:53:57;9.80;57.30
44121;DHT22;29783;52.504;13.478;2024-02-23T09:56:27;9.70;56.80
44121;DHT22;29783;52.504;13.478;2024-02-23T09:58:54;9.70;56.90
44121;DHT22;29783;52.504;13.478;2024-02-23T10:01:27;9.70;57.00
44121;DHT22;29783;52.504;13.478;2024-02-23T10:03:56;9.70;55.40
44121;DHT22;29783;52.504;13.478;2024-02-23T10:06:23;9.70;55.70
44121;DHT22;29783;52.504;13.478;2024-02-23T10:08:49;9.70;56.30
44121;DHT22;29783;52.504;13.478;2024-02-23T10:11:18;9.70;56.30
44121;DHT22;29783;52.504;13.478;2024-02-23T10:13:43;9.60;57.80
44121;DHT22;29783;52.504;13.478;2024-02-23T10:16:09;9.60;57.90
44121;DHT22;29783;52.504;13.478;2024-02-23T10:18:37;9.70;58.50
44121;DHT22;29783;52.504;13.478;2024-02-23T10:21:04;9.60;57.90
44121;DHT22;29783;52.504;13.478;2024-02-23T10:23:30;9.70;58.00
44121;DHT22;29783;52.504;13.478;2024-02-23T10:25:56;9.80;58.10
44121;DHT22;29783;52.504;13.478;2024-02-23T10:28:22;9.90;58.20
44121;DHT22;29783;52.504;13.478;2024-02-23T10:30:48;10.00;59.00
44121;DHT22;29783;52.504;13.478;2024-02-23T10:33:14;10.10;59.40
44121;DHT22;29783;52.504;13.478;2024-02-23T10:35:41;10.30;56.10
44121;DHT22;29783;52.504;13.478;2024-02-23T10:38:08;10.30;57.10
44121;DHT22;29783;52.504;13.478;2024-02-23T10:40:39;10.30;57.00
44121;DHT22;29783;52.504;13.478;2024-02-23T10:43:12;10.30;56.90
44121;DHT22;29783;52.504;13.478;2024-02-23T10:45:41;10.50;56.20
44121;DHT22;29783;52.504;13.478;2024-02-23T10:48:09;10.70;56.30
44121;DHT22;29783;52.504;13.478;2024-02-23T10:50:36;10.60;55.80
44121;DHT22;29783;52.504;13.478;2024-02-23T10:53:04;10.60;52.60
44121;DHT22;29783;52.504;13.478;2024-02-23T10:55:32;10.50;52.60
44121;DHT22;29783;52.504;13.478;2024-02-23T10:57:59;10.50;53.30
44121;DHT22;29783;52.504;13.478;2024-02-23T11:00:25;10.50;51.60
44121;DHT22;29783;52.504;13.478;2024-02-23T11:02:53;10.40;52.30
44121;DHT22;29783;52.504;13.478;2024-02-23T11:05:20;10.50;52.40
44121;DHT22;29783;52.504;13.478;2024-02-23T11:07:49;10.50;52.50
44121;DHT22;29783;52.504;13.478;2024-02-23T11:10:16;10.50;53.00
44121;DHT22;29783;52.504;13.478;2024-02-23T11:12:43;10.50;53.80
44121;DHT22;29783;52.504;13.478;2024-02-23T11:15:08;10.60;53.00
44121;DHT22;29783;52.504;13.478;2024-02-23T11:17:36;10.60;53.30
44121;DHT22;29783;52.504;13.478;2024-02-23T11:20:04;10.60;53.30
44121;DHT22;29783;52.504;13.478;2024-02-23T11:22:34;10.80;51.70
44121;DHT22;29783;52.504;13.478;2024-02-23T11:27:31;10.80;51.20
44121;DHT22;29783;52.504;13.478;2024-02-23T11:30:04;10.70;51.10
44121;DHT22;29783;52.504;13.478;2024-02-23T11:32:38;10.80;52.00
44121;DHT22;29783;52.504;13.478;2024-02-23T11:35:06;10.90;51.40
44121;DHT22;29783;52.504;13.478;2024-02-23T11:37:32;11.00;50.90
44121;DHT22;29783;52.504;13.478;2024-02-23T11:39:59;11.00;50.90
44121;DHT22;29783;52.504;13.478;2024-02-23T11:42:27;11.00;50.10
44121;DHT22;29783;52.504;13.478;2024-02-23T11:44:54;10.90;50.60
44121;DHT22;29783;52.504;13.478;2024-02-23T11:47:20;10.80;51.20
44121;DHT22;29783;52.504;13.478;2024-02-23T11:49:45;10.90;50.80
44121;DHT22;29783;52.504;13.478;2024-02-23T11:52:11;10.80;50.90
44121;DHT22;29783;52.504;13.478;2024-02-23T11:54:37;10.80;51.10
44121;DHT22;29783;52.504;13.478;2024-02-23T11:57:03;10.80;51.10
44121;DHT22;29783;52.504;13.478;2024-02-23T11:59:29;10.80;50.50
44121;DHT22;29783;52.504;13.478;2024-02-23T12:01:55;10.70;50.80
44121;DHT22;29783;52.504;13.478;2024-02-23T12:04:21;10.90;50.70
44121;DHT22;29783;52.504;13.478;2024-02-23T12:06:48;11.10;51.10
44121;DHT22;29783;52.504;13.478;2024-02-23T12:09:14;11.20;51.20
44121;DHT22;29783;52.504;13.478;2024-02-23T12:11:41;11.20;51.60
44121;DHT22;29783;52.504;13.478;2024-02-23T12:14:07;11.30;51.20
44121;DHT22;29783;52.504;13.478;2024-02-23T12:16:35;11.10;51.60
44121;DHT22;29783;52.504;13.478;2024-02-23T12:19:04;11.20;51.60
44121;DHT22;29783;52.504;13.478;2024-02-23T12:21:29;11.10;51.20
44121;DHT22;29783;52.504;13.478;2024-02-23T12:23:55;11.20;51.10
44121;DHT22;29783;52.504;13.478;2024-02-23T12:26:21;11.00;51.40
44121;DHT22;29783;52.504;13.478;2024-02-23T12:28:47;10.90;51.20
44121;DHT22;29783;52.504;13.478;2024-02-23T12:31:13;11.10;51.40
44121;DHT22;29783;52.504;13.478;2024-02-23T12:33:39;11.10;51.00
44121;DHT22;29783;52.504;13.478;2024-02-23T12:36:06;11.00;50.60
44121;DHT22;29783;52.504;13.478;2024-02-23T12:38:32;10.90;50.60
44121;DHT22;29783;52.504;13.478;2024-02-23T12:40:59;10.80;51.30
44121;DHT22;29783;52.504;13.478;2024-02-23T12:43:25;11.00;51.70
44121;DHT22;29783;52.504;13.478;2024-02-23T12:45:54;11.00;51.20
44121;DHT22;29783;52.504;13.478;2024-02-23T12:48:20;11.20;51.50
44121;DHT22;29783;52.504;13.478;2024-02-23T12:50:47;11.40;49.80
44121;DHT22;29783;52.504;13.478;2024-02-23T12:56:04;11.40;49.70
44121;DHT22;29783;52.504;13.478;2024-02-23T12:58:31;11.30;49.60
44121;DHT22;29783;52.504;13.478;2024-02-23T13:01:00;11.20;49.80
44121;DHT22;29783;52.504;13.478;2024-02-23T13:03:26;11.20;50.40
44121;DHT22;29783;52.504;13.478;2024-02-23T13:05:55;11.10;50.40
44121;DHT22;29783;52.504;13.478;2024-02-23T13:08:24;10.90;50.70
44121;DHT22;29783;52.504;13.478;2024-02-23T13:10:51;10.70;51.30
44121;DHT22;29783;52.504;13.478;2024-02-23T13:13:18;10.70;51.20
44121;DHT22;29783;52.504;13.478;2024-02-23T13:15:45;10.90;51.10
44121;DHT22;29783;52.504;13.478;2024-02-23T13:18:11;10.80;51.50
44121;DHT22;29783;52.504;13.478;2024-02-23T13:20:40;11.20;50.80
44121;DHT22;29783;52.504;13.478;2024-02-23T13:23:11;11.20;51.10
44121;DHT22;29783;52.504;13.478;2024-02-23T13:25:38;11.30;51.10
44121;DHT22;29783;52.504;13.478;2024-02-23T13:28:04;11.20;51.30
44121;DHT22;29783;52.504;13.478;2024-02-23T13:30:31;11.00;51.80
44121;DHT22;29783;52.504;13.478;2024-02-23T13:32:57;10.90;52.80
44121;DHT22;29783;52.504;13.478;2024-02-23T13:35:23;10.90;51.80
44121;DHT22;29783;52.504;13.478;2024-02-23T13:37:49;10.70;53.80
44121;DHT22;29783;52.504;13.478;2024-02-23T13:40:14;10.80;53.50
44121;DHT22;29783;52.504;13.478;2024-02-23T13:42:40;10.80;53.80
44121;DHT22;29783;52.504;13.478;2024-02-23T13:45:07;10.70;52.60
44121;DHT22;29783;52.504;13.478;2024-02-23T13:47:34;10.50;53.00
44121;DHT22;29783;52.504;13.478;2024-02-23T13:50:00;10.70;52.90
44121;DHT22;29783;52.504;13.478;2024-02-23T13:52:26;10.80;52.80
44121;DHT22;29783;52.504;13.478;2024-02-23T13:54:52;10.70;53.20
44121;DHT22;29783;52.504;13.478;2024-02-23T13:57:18;10.50;53.50
44121;DHT22;29783;52.504;13.478;2024-02-23T13:59:43;10.30;53.40
44121;DHT22;29783;52.504;13.478;2024-02-23T14:02:09;10.30;54.10
44121;DHT22;29783;52.504;13.478;2024-02-23T14:04:34;10.30;53.40
44121;DHT22;29783;52.504;13.478;2024-02-23T14:07:01;10.40;54.00
44121;DHT22;29783;52.504;13.478;2024-02-23T14:09:26;10.50;53.60
44121;DHT22;29783;52.504;13.478;2024-02-23T14:11:52;10.70;53.60
44121;DHT22;29783;52.504;13.478;2024-02-23T14:14:18;10.80;53.70
44121;DHT22;29783;52.504;13.478;2024-02-23T14:16:45;10.90;53.10
44121;DHT22;29783;52.504;13.478;2024-02-23T14:19:11;10.70;53.50
44121;DHT22;29783;52.504;13.478;2024-02-23T14:21:36;10.70;53.20
44121;DHT22;29783;52.504;13.478;2024-02-23T14:24:03;10.60;53.50
44121;DHT22;29783;52.504;13.478;2024-02-23T14:26:29;10.50;53.80
44121;DHT22;29783;52.504;13.478;2024-02-23T14:29:30;10.40;53.60
44121;DHT22;29783;52.504;13.478;2024-02-23T14:31:55;10.40;53.90
44121;DHT22;29783;52.504;13.478;2024-02-23T14:34:21;10.40;52.50
44121;DHT22;29783;52.504;13.478;2024-02-23T14:36:49;10.20;52.60
44121;DHT22;29783;52.504;13.478;2024-02-23T14:39:15;10.00;53.10
44121;DHT22;29783;52.504;13.478;2024-02-23T14:41:40;9.80;54.30
44121;DHT22;29783;52.504;13.478;2024-02-23T14:44:06;9.90;55.00
44121;DHT22;29783;52.504;13.478;2024-02-23T14:46:32;10.10;54.30
44121;DHT22;29783;52.504;13.478;2024-02-23T14:48:57;10.10;53.70
44121;DHT22;29783;52.504;13.478;2024-02-23T14:51:29;10.10;53.60
44121;DHT22;29783;52.504;13.478;2024-02-23T14:53:55;10.00;53.70
44121;DHT22;29783;52.504;13.478;2024-02-23T14:56:21;9.80;53.90
44121;DHT22;29783;52.504;13.478;2024-02-23T14:58:46;9.80;54.50
44121;DHT22;29783;52.504;13.478;2024-02-23T15:01:12;9.70;54.50
44121;DHT22;29783;52.504;13.478;2024-02-23T15:03:38;9.60;55.30
44121;DHT22;29783;52.504;13.478;2024-02-23T15:06:03;9.70;54.80
44121;DHT22;29783;52.504;13.478;2024-02-23T15:08:29;9.80;54.80
44121;DHT22;29783;52.504;13.478;2024-02-23T15:10:55;9.70;55.60
44121;DHT22;29783;52.504;13.478;2024-02-23T15:13:20;9.80;55.20
44121;DHT22;29783;52.504;13.478;2024-02-23T15:15:46;9.60;55.80
44121;DHT22;29783;52.504;13.478;2024-02-23T15:18:12;9.70;55.60
44121;DHT22;29783;52.504;13.478;2024-02-23T15:20:37;9.70;55.50
44121;DHT22;29783;52.504;13.478;2024-02-23T15:23:03;9.70;56.00